createdAt,value
2023-01-12T00:01:57.205Z,99.90
2023-01-12T00:04:24.395Z,99.90
2023-01-12T00:06:51.541Z,99.90
2023-01-12T00:11:46.138Z,99.90
2023-01-12T00:14:13.499Z,99.90
2023-01-12T00:16:43.305Z,99.90
2023-01-12T00:19:16.123Z,99.90
2023-01-12T00:22:24.028Z,99.90
2023-01-12T00:24:52.662Z,99.90
2023-01-12T00:29:49.291Z,99.90
2023-01-12T00:32:18.709Z,99.90
2023-01-12T00:34:45.918Z,99.90
2023-01-12T00:37:13.146Z,99.90
2023-01-12T00:39:45.405Z,99.90
2023-01-12T00:42:32.310Z,99.90
2023-01-12T00:45:17.796Z,99.90
2023-01-12T00:47:44.935Z,99.90
2023-01-12T00:50:12.016Z,99.90
2023-01-12T00:52:39.126Z,99.90
2023-01-12T00:55:06.774Z,99.90
2023-01-12T00:57:34.084Z,99.90
2023-01-12T01:00:01.156Z,99.90
2023-01-12T01:02:28.929Z,99.90
2023-01-12T01:04:56.347Z,99.90
2023-01-12T01:07:23.533Z,99.90
2023-01-12T01:09:51.273Z,99.90
2023-01-12T01:12:18.502Z,99.90
2023-01-12T01:14:47.589Z,99.90
2023-01-12T01:17:14.696Z,99.90
2023-01-12T01:19:43.417Z,99.90
2023-01-12T01:22:10.652Z,99.90
2023-01-12T01:24:37.719Z,99.90
2023-01-12T01:27:04.822Z,99.90
2023-01-12T01:29:31.878Z,99.90
2023-01-12T01:31:58.948Z,99.90
2023-01-12T01:36:53.545Z,99.90
2023-01-12T01:39:20.597Z,99.90
2023-01-12T01:44:53.151Z,99.90
2023-01-12T01:47:30.647Z,99.90
2023-01-12T01:50:00.697Z,99.90
2023-01-12T01:52:36.870Z,99.90
2023-01-12T01:55:12.638Z,99.90
2023-01-12T01:57:53.594Z,99.90
2023-01-12T02:00:22.088Z,99.90
2023-01-12T02:02:49.787Z,99.90
2023-01-12T02:05:20.878Z,99.90
2023-01-12T02:07:49.868Z,99.90
2023-01-12T02:10:17.745Z,99.90
2023-01-12T02:13:03.940Z,99.90
2023-01-12T02:15:58.349Z,99.90
2023-01-12T02:18:42.566Z,99.90
2023-01-12T02:21:35.151Z,99.90
2023-01-12T02:24:25.772Z,99.90
2023-01-12T02:27:37.345Z,99.90
2023-01-12T02:30:51.296Z,99.90
2023-01-12T02:33:47.039Z,99.90
2023-01-12T02:36:50.508Z,99.90
2023-01-12T02:40:03.460Z,99.90
2023-01-12T02:43:06.015Z,99.90
2023-01-12T02:46:01.394Z,99.90
2023-01-12T02:59:22.192Z,99.90
2023-01-12T03:01:56.174Z,99.90
2023-01-12T03:04:24.702Z,99.90
2023-01-12T03:07:36.497Z,99.90
2023-01-12T03:10:45.005Z,99.90
2023-01-12T03:13:15.765Z,99.90
2023-01-12T03:15:47.949Z,99.90
2023-01-12T03:19:01.179Z,99.90
2023-01-12T03:21:34.288Z,99.90
2023-01-12T03:24:17.308Z,99.90
2023-01-12T03:26:49.464Z,99.90
2023-01-12T03:29:29.958Z,99.90
2023-01-12T03:31:57.299Z,99.90
2023-01-12T04:20:02.894Z,99.90
2023-01-12T04:35:26.875Z,99.90
2023-01-12T04:37:54.496Z,99.90
2023-01-12T04:40:21.730Z,99.90
2023-01-12T04:43:02.556Z,99.90
2023-01-12T05:02:48.150Z,99.90
2023-01-12T05:20:21.912Z,99.90
2023-01-12T08:42:13.518Z,99.90
2023-01-12T08:47:19.948Z,99.90
2023-01-12T08:54:43.024Z,99.90
2023-01-12T08:57:10.121Z,99.90
2023-01-12T08:59:37.382Z,99.90
2023-01-12T09:02:05.056Z,99.90
2023-01-12T09:04:32.358Z,99.90
2023-01-12T09:07:00.275Z,99.90
2023-01-12T09:09:27.668Z,99.90
2023-01-12T09:11:54.802Z,99.90
2023-01-12T09:14:22.023Z,99.90
2023-01-12T09:16:49.640Z,99.90
2023-01-12T09:19:16.973Z,99.90
2023-01-12T09:21:44.644Z,99.90
2023-01-12T09:24:12.247Z,99.90
2023-01-12T09:26:44.430Z,99.90
2023-01-12T09:29:13.159Z,99.90
2023-01-12T09:34:10.053Z,99.90
2023-01-12T09:44:56.364Z,99.90
2023-01-12T09:50:25.125Z,99.90
2023-01-12T09:55:29.671Z,99.90
2023-01-12T10:00:49.125Z,99.90
2023-01-12T10:09:00.831Z,99.90
2023-01-12T10:14:42.235Z,99.90
2023-01-12T10:17:50.867Z,99.90
2023-01-12T10:20:47.481Z,99.90
2023-01-12T10:23:24.843Z,99.90
2023-01-12T10:26:03.509Z,99.90
2023-01-12T10:33:34.765Z,99.80
2023-01-12T10:41:27.112Z,99.50
2023-01-12T10:46:40.414Z,99.10
2023-01-12T10:49:24.668Z,99.90
2023-01-12T10:52:00.133Z,99.00
2023-01-12T10:57:23.412Z,97.30
2023-01-12T10:59:53.560Z,97.00
2023-01-12T11:02:20.919Z,97.40
2023-01-12T11:04:52.883Z,97.40
2023-01-12T11:12:42.334Z,96.70
2023-01-12T11:15:18.325Z,97.50
2023-01-12T11:18:23.591Z,97.40
2023-01-12T11:21:05.230Z,97.90
2023-01-12T11:26:32.782Z,98.40
2023-01-12T13:20:50.784Z,95.30
2023-01-12T13:36:03.545Z,92.90
2023-01-12T13:38:59.876Z,91.50
2023-01-12T13:44:29.845Z,93.20
2023-01-12T13:47:24.719Z,93.90
2023-01-12T13:57:30.694Z,93.50
2023-01-12T14:00:00.031Z,92.20
2023-01-12T14:02:32.814Z,93.10
2023-01-12T14:05:27.157Z,92.60
2023-01-12T14:08:50.163Z,91.80
2023-01-12T14:11:57.121Z,93.30
2023-01-12T14:20:28.058Z,92.70
2023-01-12T14:23:41.449Z,92.00
2023-01-12T14:26:18.750Z,91.70
2023-01-12T14:31:54.025Z,90.80
2023-01-12T14:34:34.817Z,88.60
2023-01-12T14:37:04.879Z,89.40
2023-01-12T14:42:22.603Z,90.90
2023-01-12T14:47:42.068Z,89.30
2023-01-12T14:52:48.192Z,87.30
2023-01-12T14:58:06.573Z,88.60
2023-01-12T15:03:21.251Z,88.20
2023-01-12T15:05:55.056Z,85.90
2023-01-12T15:08:26.992Z,86.20
2023-01-12T15:11:09.281Z,86.30
2023-01-12T15:19:10.279Z,86.20
2023-01-12T22:24:21.820Z,98.20
2023-01-12T22:41:41.286Z,97.90
2023-01-12T23:06:22.788Z,98.40
2023-01-12T23:16:16.537Z,97.70
2023-01-12T23:18:45.619Z,96.50
2023-01-12T23:26:13.393Z,96.80
2023-01-12T23:28:45.417Z,97.20
2023-01-12T23:33:43.257Z,96.70
2023-01-12T23:36:16.127Z,95.90
2023-01-12T23:58:25.377Z,95.60
